Delray Beach, FL

10:15 AM EST on February 08, 2016 (GMT -0500)
RAWS | | Change Station
CLOSE
Current Station
Personal Weather Station
Location: Delray Beach, FL
Elevation: 17 ft
Nearby Weather Stations

Elev 17 ft 26.50 °N, 80.22 °W | Updated 1 day ago

Clear
Clear
63 °F
Feels Like 63 °F
N
11
Wind Variable Wind from West
Gusts mph

Today
High -- | Low -- °F
--% Chance of Precip.
Yesterday
High -- | Low -- °F
Precip. -- in
Pressure 30.15 in
Visibility 10.0 miles
Clouds Clear
Dew Point 39 °F
Humidity 41%
Rainfall in
Snow Depth Not available.
7:02 AM 6:08 PM
New Moon, 0% visible
METAR KPMP 081453Z 29010KT 10SM CLR 14/02 A3015 RMK AO2 SLP209 T01440017 53012 $
Pressure 30.15 in
Visibility 10.0 miles
Clouds Clear
Dew Point 39 °F
Humidity 41%
Rainfall in
Snow Depth Not available.
7:02 AM 6:08 PM
New Moon, 0% visible
METAR KPMP 081453Z 29010KT 10SM CLR 14/02 A3015 RMK AO2 SLP209 T01440017 53012 $

10-Day Weather Forecast

Almanac

Astronomy

Feb. 08, 2016 Rise Set
Actual Time
Civil Twilight
Nautical Twilight
Astronomical Twilight
Moon
Length of Visible Light
Length of Day
Tomorrow will be .
, % of the Moon is Illuminated

Today's Extremes

State Highs State Lows

Community

WunderPhotos

Upload Photos

1,891,450 photos uploaded!

WunderBlog® & News

Nearby

Air Quality

  Air Quality AQ Index Pollutant
Not available.

Snow Depth

Station Depth Elevation

Earthquake Activity

City Distance Mag. Time & Date
Minimum magnitude displayed is 2.5.

Coastal Water Temperatures

Place Temperature

Stations

Nearby Weather Stations

Station Location Temp. Windchill Dew Point Humidity Wind Precip. Elev Updated Type
                   

Watches & Warnings

There are currently no watches in effect.